sensor_id;sensor_type;location;lat;lon;timestamp;P1;durP1;ratioP1;P2;durP2;ratioP2
19163;SDS011;9714;51.208;4.242;2023-11-21T00:02:11;11.17;;;4.40;;
19163;SDS011;9714;51.208;4.242;2023-11-21T00:04:41;11.43;;;5.80;;
19163;SDS011;9714;51.208;4.242;2023-11-21T00:07:11;12.43;;;5.37;;
19163;SDS011;9714;51.208;4.242;2023-11-21T00:09:45;12.43;;;5.00;;
19163;SDS011;9714;51.208;4.242;2023-11-21T00:12:18;13.53;;;5.17;;
19163;SDS011;9714;51.208;4.242;2023-11-21T00:14:51;14.53;;;5.27;;
19163;SDS011;9714;51.208;4.242;2023-11-21T00:17:25;15.10;;;5.23;;
19163;SDS011;9714;51.208;4.242;2023-11-21T00:19:58;13.50;;;6.00;;
19163;SDS011;9714;51.208;4.242;2023-11-21T00:22:31;11.60;;;5.97;;
19163;SDS011;9714;51.208;4.242;2023-11-21T00:25:05;14.27;;;5.77;;
19163;SDS011;9714;51.208;4.242;2023-11-21T00:27:35;12.67;;;5.30;;
19163;SDS011;9714;51.208;4.242;2023-11-21T00:30:02;14.00;;;5.53;;
19163;SDS011;9714;51.208;4.242;2023-11-21T00:32:32;11.77;;;5.17;;
19163;SDS011;9714;51.208;4.242;2023-11-21T00:34:59;13.50;;;5.27;;
19163;SDS011;9714;51.208;4.242;2023-11-21T00:40:03;13.47;;;5.70;;
19163;SDS011;9714;51.208;4.242;2023-11-21T00:42:37;12.50;;;5.40;;
19163;SDS011;9714;51.208;4.242;2023-11-21T00:47:38;14.23;;;6.10;;
19163;SDS011;9714;51.208;4.242;2023-11-21T00:50:18;12.90;;;5.40;;
19163;SDS011;9714;51.208;4.242;2023-11-21T00:52:50;13.63;;;5.00;;
19163;SDS011;9714;51.208;4.242;2023-11-21T00:55:20;13.83;;;5.80;;
19163;SDS011;9714;51.208;4.242;2023-11-21T00:57:50;16.27;;;5.70;;
19163;SDS011;9714;51.208;4.242;2023-11-21T01:00:18;11.70;;;5.33;;
19163;SDS011;9714;51.208;4.242;2023-11-21T01:02:49;12.13;;;5.03;;
19163;SDS011;9714;51.208;4.242;2023-11-21T01:05:17;11.83;;;6.00;;
19163;SDS011;9714;51.208;4.242;2023-11-21T01:10:17;16.43;;;6.57;;
19163;SDS011;9714;51.208;4.242;2023-11-21T01:12:44;12.83;;;4.37;;
19163;SDS011;9714;51.208;4.242;2023-11-21T01:15:18;11.77;;;5.50;;
19163;SDS011;9714;51.208;4.242;2023-11-21T01:20:19;17.33;;;5.93;;
19163;SDS011;9714;51.208;4.242;2023-11-21T01:22:50;13.67;;;4.60;;
19163;SDS011;9714;51.208;4.242;2023-11-21T01:28:02;13.90;;;5.53;;
19163;SDS011;9714;51.208;4.242;2023-11-21T06:37:15;16.30;;;6.07;;
19163;SDS011;9714;51.208;4.242;2023-11-21T06:39:42;16.23;;;6.37;;
19163;SDS011;9714;51.208;4.242;2023-11-21T06:42:10;14.53;;;6.70;;
19163;SDS011;9714;51.208;4.242;2023-11-21T07:13:43;15.93;;;5.70;;
19163;SDS011;9714;51.208;4.242;2023-11-21T07:16:11;14.90;;;6.50;;
19163;SDS011;9714;51.208;4.242;2023-11-21T07:18:40;21.03;;;6.90;;
19163;SDS011;9714;51.208;4.242;2023-11-21T07:21:08;16.57;;;7.57;;
19163;SDS011;9714;51.208;4.242;2023-11-21T07:23:37;14.80;;;6.87;;
19163;SDS011;9714;51.208;4.242;2023-11-21T07:26:04;13.87;;;6.23;;
19163;SDS011;9714;51.208;4.242;2023-11-21T07:28:34;13.03;;;5.50;;
19163;SDS011;9714;51.208;4.242;2023-11-21T13:29:56;4.37;;;1.57;;
19163;SDS011;9714;51.208;4.242;2023-11-21T13:32:25;5.43;;;1.70;;
19163;SDS011;9714;51.208;4.242;2023-11-21T13:34:58;4.80;;;1.77;;
19163;SDS011;9714;51.208;4.242;2023-11-21T13:37:31;4.80;;;1.23;;
19163;SDS011;9714;51.208;4.242;2023-11-21T13:40:01;4.17;;;1.00;;
19163;SDS011;9714;51.208;4.242;2023-11-21T13:49:32;3.77;;;1.00;;
19163;SDS011;9714;51.208;4.242;2023-11-21T13:52:19;6.83;;;1.50;;
19163;SDS011;9714;51.208;4.242;2023-11-21T14:04:10;4.27;;;1.33;;
19163;SDS011;9714;51.208;4.242;2023-11-21T14:10:08;4.43;;;1.40;;
19163;SDS011;9714;51.208;4.242;2023-11-21T14:12:41;4.77;;;1.60;;
19163;SDS011;9714;51.208;4.242;2023-11-21T14:15:15;3.37;;;1.20;;
19163;SDS011;9714;51.208;4.242;2023-11-21T14:17:44;3.53;;;1.10;;
19163;SDS011;9714;51.208;4.242;2023-11-21T14:22:46;5.37;;;1.57;;
19163;SDS011;9714;51.208;4.242;2023-11-21T14:28:41;3.47;;;1.23;;
19163;SDS011;9714;51.208;4.242;2023-11-21T14:31:09;5.33;;;1.97;;
19163;SDS011;9714;51.208;4.242;2023-11-21T14:33:40;4.07;;;1.40;;
19163;SDS011;9714;51.208;4.242;2023-11-21T14:36:07;3.83;;;1.43;;
19163;SDS011;9714;51.208;4.242;2023-11-21T14:38:35;7.90;;;1.83;;
19163;SDS011;9714;51.208;4.242;2023-11-21T14:41:04;6.80;;;1.80;;
19163;SDS011;9714;51.208;4.242;2023-11-21T14:43:33;5.73;;;1.90;;
19163;SDS011;9714;51.208;4.242;2023-11-21T14:46:03;4.90;;;1.80;;
19163;SDS011;9714;51.208;4.242;2023-11-21T14:48:34;4.70;;;1.67;;
19163;SDS011;9714;51.208;4.242;2023-11-21T14:51:09;4.07;;;1.43;;
19163;SDS011;9714;51.208;4.242;2023-11-21T14:53:53;4.40;;;1.53;;
19163;SDS011;9714;51.208;4.242;2023-11-21T14:56:20;5.03;;;1.70;;
19163;SDS011;9714;51.208;4.242;2023-11-21T14:58:52;5.50;;;1.50;;
19163;SDS011;9714;51.208;4.242;2023-11-21T15:01:20;8.63;;;1.90;;
19163;SDS011;9714;51.208;4.242;2023-11-21T15:04:01;4.37;;;1.43;;
19163;SDS011;9714;51.208;4.242;2023-11-21T15:06:31;6.53;;;2.30;;
19163;SDS011;9714;51.208;4.242;2023-11-21T15:08:58;6.53;;;1.57;;
19163;SDS011;9714;51.208;4.242;2023-11-21T15:11:53;6.80;;;1.97;;
19163;SDS011;9714;51.208;4.242;2023-11-21T15:14:28;7.80;;;2.30;;
19163;SDS011;9714;51.208;4.242;2023-11-21T15:16:58;6.03;;;2.40;;
19163;SDS011;9714;51.208;4.242;2023-11-21T15:19:33;6.00;;;2.17;;
19163;SDS011;9714;51.208;4.242;2023-11-21T15:22:04;6.10;;;2.23;;
19163;SDS011;9714;51.208;4.242;2023-11-21T15:24:37;5.93;;;1.70;;
19163;SDS011;9714;51.208;4.242;2023-11-21T15:27:08;4.10;;;1.27;;
19163;SDS011;9714;51.208;4.242;2023-11-21T15:29:41;6.73;;;2.30;;
19163;SDS011;9714;51.208;4.242;2023-11-21T15:32:12;8.20;;;2.53;;
19163;SDS011;9714;51.208;4.242;2023-11-21T15:34:41;7.47;;;1.80;;
19163;SDS011;9714;51.208;4.242;2023-11-21T15:39:40;7.47;;;2.17;;
19163;SDS011;9714;51.208;4.242;2023-11-21T15:42:12;7.13;;;1.70;;
19163;SDS011;9714;51.208;4.242;2023-11-21T15:44:39;6.50;;;2.27;;
19163;SDS011;9714;51.208;4.242;2023-11-21T15:47:07;8.60;;;2.13;;
19163;SDS011;9714;51.208;4.242;2023-11-21T15:49:38;8.77;;;2.63;;
19163;SDS011;9714;51.208;4.242;2023-11-21T15:52:05;5.90;;;2.00;;
19163;SDS011;9714;51.208;4.242;2023-11-21T15:54:35;5.53;;;1.70;;
19163;SDS011;9714;51.208;4.242;2023-11-21T15:57:03;7.23;;;2.47;;
19163;SDS011;9714;51.208;4.242;2023-11-21T15:59:31;7.27;;;1.97;;
19163;SDS011;9714;51.208;4.242;2023-11-21T16:01:58;7.57;;;2.60;;
19163;SDS011;9714;51.208;4.242;2023-11-21T16:13:50;11.03;;;3.40;;
19163;SDS011;9714;51.208;4.242;2023-11-21T16:16:21;7.47;;;2.37;;
19163;SDS011;9714;51.208;4.242;2023-11-21T16:18:48;9.20;;;2.73;;
19163;SDS011;9714;51.208;4.242;2023-11-21T16:21:15;7.97;;;2.37;;
19163;SDS011;9714;51.208;4.242;2023-11-21T16:23:43;5.80;;;1.97;;
19163;SDS011;9714;51.208;4.242;2023-11-21T16:26:10;6.10;;;2.47;;
19163;SDS011;9714;51.208;4.242;2023-11-21T16:28:39;12.83;;;3.20;;
19163;SDS011;9714;51.208;4.242;2023-11-21T16:31:13;7.33;;;2.73;;
19163;SDS011;9714;51.208;4.242;2023-11-21T16:36:36;7.30;;;2.03;;
19163;SDS011;9714;51.208;4.242;2023-11-21T16:39:19;9.60;;;2.90;;
19163;SDS011;9714;51.208;4.242;2023-11-21T16:41:50;6.97;;;2.80;;
19163;SDS011;9714;51.208;4.242;2023-11-21T16:44:24;10.13;;;2.80;;
19163;SDS011;9714;51.208;4.242;2023-11-21T16:47:05;9.87;;;3.33;;
19163;SDS011;9714;51.208;4.242;2023-11-21T16:49:52;11.63;;;3.70;;
19163;SDS011;9714;51.208;4.242;2023-11-21T16:52:53;11.73;;;4.73;;
19163;SDS011;9714;51.208;4.242;2023-11-21T16:55:27;11.40;;;4.20;;
19163;SDS011;9714;51.208;4.242;2023-11-21T16:57:59;9.70;;;3.90;;
19163;SDS011;9714;51.208;4.242;2023-11-21T17:00:27;7.70;;;2.73;;
19163;SDS011;9714;51.208;4.242;2023-11-21T17:02:58;11.27;;;3.40;;
19163;SDS011;9714;51.208;4.242;2023-11-21T17:05:39;9.40;;;3.53;;
19163;SDS011;9714;51.208;4.242;2023-11-21T17:08:13;12.07;;;3.70;;
19163;SDS011;9714;51.208;4.242;2023-11-21T17:10:48;9.03;;;3.43;;
19163;SDS011;9714;51.208;4.242;2023-11-21T17:13:16;10.37;;;3.63;;
19163;SDS011;9714;51.208;4.242;2023-11-21T17:15:43;13.23;;;3.90;;
19163;SDS011;9714;51.208;4.242;2023-11-21T17:18:13;9.93;;;3.43;;
19163;SDS011;9714;51.208;4.242;2023-11-21T17:20:40;11.90;;;3.37;;
19163;SDS011;9714;51.208;4.242;2023-11-21T17:26:24;10.37;;;3.00;;
19163;SDS011;9714;51.208;4.242;2023-11-21T17:28:51;12.70;;;3.90;;
19163;SDS011;9714;51.208;4.242;2023-11-21T17:31:19;7.90;;;3.40;;
19163;SDS011;9714;51.208;4.242;2023-11-21T17:33:49;10.10;;;3.73;;
19163;SDS011;9714;51.208;4.242;2023-11-21T17:36:21;10.03;;;3.00;;
19163;SDS011;9714;51.208;4.242;2023-11-21T17:38:50;12.37;;;3.90;;
19163;SDS011;9714;51.208;4.242;2023-11-21T17:41:33;8.33;;;2.87;;
19163;SDS011;9714;51.208;4.242;2023-11-21T17:54:43;11.43;;;3.83;;
19163;SDS011;9714;51.208;4.242;2023-11-21T18:08:09;16.47;;;5.63;;
19163;SDS011;9714;51.208;4.242;2023-11-21T18:14:21;16.57;;;5.97;;
19163;SDS011;9714;51.208;4.242;2023-11-21T18:17:24;13.57;;;3.83;;
19163;SDS011;9714;51.208;4.242;2023-11-21T18:23:56;14.50;;;4.97;;
19163;SDS011;9714;51.208;4.242;2023-11-21T18:27:04;19.80;;;6.07;;
19163;SDS011;9714;51.208;4.242;2023-11-21T19:43:40;14.90;;;5.33;;
19163;SDS011;9714;51.208;4.242;2023-11-21T19:46:09;12.00;;;4.40;;
19163;SDS011;9714;51.208;4.242;2023-11-21T19:48:36;10.50;;;4.87;;
19163;SDS011;9714;51.208;4.242;2023-11-21T19:51:05;16.43;;;4.70;;
19163;SDS011;9714;51.208;4.242;2023-11-21T19:53:33;11.17;;;4.13;;
19163;SDS011;9714;51.208;4.242;2023-11-21T19:56:02;13.50;;;3.90;;
19163;SDS011;9714;51.208;4.242;2023-11-21T19:58:31;12.43;;;4.23;;
19163;SDS011;9714;51.208;4.242;2023-11-21T20:01:00;11.47;;;4.00;;
19163;SDS011;9714;51.208;4.242;2023-11-21T20:03:27;10.90;;;4.50;;
19163;SDS011;9714;51.208;4.242;2023-11-21T20:05:54;11.53;;;4.27;;
19163;SDS011;9714;51.208;4.242;2023-11-21T20:08:21;12.47;;;5.27;;
19163;SDS011;9714;51.208;4.242;2023-11-21T20:10:48;11.60;;;4.50;;
19163;SDS011;9714;51.208;4.242;2023-11-21T20:13:17;14.30;;;5.13;;
19163;SDS011;9714;51.208;4.242;2023-11-21T20:15:44;14.97;;;5.13;;
19163;SDS011;9714;51.208;4.242;2023-11-21T20:18:12;12.67;;;5.30;;
19163;SDS011;9714;51.208;4.242;2023-11-21T20:20:41;14.43;;;5.10;;
19163;SDS011;9714;51.208;4.242;2023-11-21T20:23:09;12.70;;;5.57;;
19163;SDS011;9714;51.208;4.242;2023-11-21T20:25:46;13.63;;;5.27;;
19163;SDS011;9714;51.208;4.242;2023-11-21T20:28:16;14.93;;;6.40;;
19163;SDS011;9714;51.208;4.242;2023-11-21T20:30:45;13.67;;;5.60;;
19163;SDS011;9714;51.208;4.242;2023-11-21T20:33:17;12.93;;;5.43;;
19163;SDS011;9714;51.208;4.242;2023-11-21T20:35:45;14.93;;;5.30;;
19163;SDS011;9714;51.208;4.242;2023-11-21T20:38:13;13.33;;;5.07;;
19163;SDS011;9714;51.208;4.242;2023-11-21T20:40:40;12.43;;;4.93;;
19163;SDS011;9714;51.208;4.242;2023-11-21T20:43:08;16.33;;;5.63;;
19163;SDS011;9714;51.208;4.242;2023-11-21T20:45:36;14.50;;;5.27;;
19163;SDS011;9714;51.208;4.242;2023-11-21T20:48:04;11.43;;;4.73;;
19163;SDS011;9714;51.208;4.242;2023-11-21T20:50:35;12.27;;;4.93;;
19163;SDS011;9714;51.208;4.242;2023-11-21T20:53:02;11.93;;;4.93;;
19163;SDS011;9714;51.208;4.242;2023-11-21T20:55:33;12.90;;;6.23;;
19163;SDS011;9714;51.208;4.242;2023-11-21T20:58:02;12.27;;;5.07;;
19163;SDS011;9714;51.208;4.242;2023-11-21T21:00:30;13.83;;;5.50;;
19163;SDS011;9714;51.208;4.242;2023-11-21T21:02:58;13.00;;;5.03;;
19163;SDS011;9714;51.208;4.242;2023-11-21T21:05:25;13.90;;;5.83;;
19163;SDS011;9714;51.208;4.242;2023-11-21T21:07:55;17.00;;;4.90;;
19163;SDS011;9714;51.208;4.242;2023-11-21T21:10:26;13.60;;;5.10;;
19163;SDS011;9714;51.208;4.242;2023-11-21T21:12:53;11.47;;;4.10;;
19163;SDS011;9714;51.208;4.242;2023-11-21T21:15:21;12.03;;;4.70;;
19163;SDS011;9714;51.208;4.242;2023-11-21T21:17:50;12.57;;;4.50;;
19163;SDS011;9714;51.208;4.242;2023-11-21T21:20:17;14.03;;;5.23;;
19163;SDS011;9714;51.208;4.242;2023-11-21T21:22:46;12.33;;;5.10;;
19163;SDS011;9714;51.208;4.242;2023-11-21T21:25:14;13.63;;;5.47;;
19163;SDS011;9714;51.208;4.242;2023-11-21T21:27:42;14.53;;;5.93;;
19163;SDS011;9714;51.208;4.242;2023-11-21T21:30:09;19.07;;;5.53;;
19163;SDS011;9714;51.208;4.242;2023-11-21T21:32:39;14.03;;;5.13;;
19163;SDS011;9714;51.208;4.242;2023-11-21T21:35:07;12.17;;;5.10;;
19163;SDS011;9714;51.208;4.242;2023-11-21T21:37:34;12.20;;;5.73;;
19163;SDS011;9714;51.208;4.242;2023-11-21T21:40:02;16.10;;;6.00;;
19163;SDS011;9714;51.208;4.242;2023-11-21T21:42:36;14.17;;;5.60;;
19163;SDS011;9714;51.208;4.242;2023-11-21T21:45:04;14.13;;;5.57;;
19163;SDS011;9714;51.208;4.242;2023-11-21T21:47:33;13.67;;;4.33;;
19163;SDS011;9714;51.208;4.242;2023-11-21T21:50:08;15.33;;;5.73;;
19163;SDS011;9714;51.208;4.242;2023-11-21T21:52:37;15.77;;;5.53;;
19163;SDS011;9714;51.208;4.242;2023-11-21T21:55:07;19.40;;;5.70;;
19163;SDS011;9714;51.208;4.242;2023-11-21T21:57:45;9.70;;;4.37;;
19163;SDS011;9714;51.208;4.242;2023-11-21T22:00:19;15.17;;;6.17;;
19163;SDS011;9714;51.208;4.242;2023-11-21T22:02:48;13.87;;;5.37;;
19163;SDS011;9714;51.208;4.242;2023-11-21T22:05:17;14.93;;;5.70;;
19163;SDS011;9714;51.208;4.242;2023-11-21T22:07:44;13.03;;;5.57;;
19163;SDS011;9714;51.208;4.242;2023-11-21T22:10:11;10.57;;;4.37;;
19163;SDS011;9714;51.208;4.242;2023-11-21T22:12:38;13.37;;;5.27;;
19163;SDS011;9714;51.208;4.242;2023-11-21T22:15:08;12.30;;;4.73;;
19163;SDS011;9714;51.208;4.242;2023-11-21T22:17:37;12.23;;;4.93;;
19163;SDS011;9714;51.208;4.242;2023-11-21T22:20:06;13.93;;;5.57;;
19163;SDS011;9714;51.208;4.242;2023-11-21T22:22:34;11.83;;;4.87;;
19163;SDS011;9714;51.208;4.242;2023-11-21T22:25:02;10.67;;;3.87;;
19163;SDS011;9714;51.208;4.242;2023-11-21T22:27:33;13.40;;;4.80;;
19163;SDS011;9714;51.208;4.242;2023-11-21T22:30:00;11.37;;;4.00;;
19163;SDS011;9714;51.208;4.242;2023-11-21T22:32:29;13.03;;;4.83;;
19163;SDS011;9714;51.208;4.242;2023-11-21T22:34:57;14.37;;;5.33;;
19163;SDS011;9714;51.208;4.242;2023-11-21T22:37:25;11.13;;;3.90;;
19163;SDS011;9714;51.208;4.242;2023-11-21T22:39:55;11.77;;;5.67;;
19163;SDS011;9714;51.208;4.242;2023-11-21T22:42:23;12.90;;;4.83;;
19163;SDS011;9714;51.208;4.242;2023-11-21T22:44:50;14.87;;;5.67;;
19163;SDS011;9714;51.208;4.242;2023-11-21T22:47:19;16.50;;;5.73;;
19163;SDS011;9714;51.208;4.242;2023-11-21T22:49:48;11.87;;;3.87;;
19163;SDS011;9714;51.208;4.242;2023-11-21T22:52:16;11.63;;;4.57;;
19163;SDS011;9714;51.208;4.242;2023-11-21T22:54:43;14.10;;;5.03;;
19163;SDS011;9714;51.208;4.242;2023-11-21T22:57:11;13.93;;;5.33;;
19163;SDS011;9714;51.208;4.242;2023-11-21T22:59:39;10.80;;;5.10;;
19163;SDS011;9714;51.208;4.242;2023-11-21T23:02:08;12.47;;;5.03;;
19163;SDS011;9714;51.208;4.242;2023-11-21T23:04:35;12.83;;;5.07;;
19163;SDS011;9714;51.208;4.242;2023-11-21T23:07:04;11.57;;;4.13;;
19163;SDS011;9714;51.208;4.242;2023-11-21T23:09:32;10.53;;;4.03;;
19163;SDS011;9714;51.208;4.242;2023-11-21T23:12:00;15.53;;;6.60;;
19163;SDS011;9714;51.208;4.242;2023-11-21T23:14:30;13.87;;;6.13;;
19163;SDS011;9714;51.208;4.242;2023-11-21T23:16:59;14.13;;;4.97;;
19163;SDS011;9714;51.208;4.242;2023-11-21T23:19:27;11.07;;;4.83;;
19163;SDS011;9714;51.208;4.242;2023-11-21T23:21:54;15.50;;;5.63;;
19163;SDS011;9714;51.208;4.242;2023-11-21T23:24:23;11.37;;;4.47;;
19163;SDS011;9714;51.208;4.242;2023-11-21T23:26:51;9.40;;;3.77;;
19163;SDS011;9714;51.208;4.242;2023-11-21T23:29:24;10.83;;;4.27;;
19163;SDS011;9714;51.208;4.242;2023-11-21T23:31:53;12.10;;;4.73;;
19163;SDS011;9714;51.208;4.242;2023-11-21T23:34:21;11.60;;;4.30;;
19163;SDS011;9714;51.208;4.242;2023-11-21T23:36:48;11.73;;;4.03;;
19163;SDS011;9714;51.208;4.242;2023-11-21T23:39:16;14.50;;;4.63;;
19163;SDS011;9714;51.208;4.242;2023-11-21T23:41:45;11.77;;;4.23;;
19163;SDS011;9714;51.208;4.242;2023-11-21T23:44:12;12.37;;;4.80;;
19163;SDS011;9714;51.208;4.242;2023-11-21T23:46:40;10.50;;;4.50;;
19163;SDS011;9714;51.208;4.242;2023-11-21T23:49:08;12.17;;;4.83;;
19163;SDS011;9714;51.208;4.242;2023-11-21T23:51:42;13.63;;;4.33;;
19163;SDS011;9714;51.208;4.242;2023-11-21T23:54:09;10.20;;;3.97;;
19163;SDS011;9714;51.208;4.242;2023-11-21T23:56:37;13.00;;;5.33;;
19163;SDS011;9714;51.208;4.242;2023-11-21T23:59:06;11.07;;;4.30;;
